Aeroporto :
LOGIN :

Iscrizione | Disclaimer

   EN    FR    IT 

 










Sommario :    VFR   VFR Marginale   IFR   IFR Intensivo   IFR Molto Intensivo
Visibilità : 
Base nubi : 
>= 8 km
>= 3000ft
5 / 8 km
1000 / 3000 ft
1500m / 5 km
500 / 1000 ft
800 / 1500m
200 / 500 ft
< 800m
< 200 ft
Simboli :   Temporali  Nebbia  Neve Forte  Precipitazioni Forti  Vento > 20 kt
SIGMETs :   Varie  Temporali  Ghiacco  Turbolenza  Onda orograficha  Ceneri Vulcaniche






- Altitudine del aeroporto : 776 ft
- Codice IATA : RMS


ETAR - Ramstein Air Base

ULTIMO METAR :
  • 260928Z 04004KT 0800 R26/1000V1500 FG OVC002 00/00 A3022 RMK AO2A SLP250 FZRANO $

METARs OBSOLETI :
  • 260856Z 09003KT 0600 R26/0800V1300 FG OVC002 00/00 A3021 RMK AO2A SLP246 T00010001 53006 FZRANO $
  • 260756Z 06003KT 0600 R26/0900V1000 FZFG OVC002 00/00 A3021 RMK AO2A SLP246 T10011001 FZRANO $
  • 260656Z 00000KT 0600 R26/1100V1200 FZFG OVC002 00/00 A3019 RMK AO2A SLP241 T10011001 FZRANO $
  • 260643Z 00000KT 0600 R26/1100V1300 FG OVC002 00/00 A3020 RMK AO2A SLP243 FZRANO $

TAF TAF ETAR
Valido dal 26 a 02 ore il 27 a 08 ore UTC


260200Z 2602/2708 VRB06KT 0800 FG BKN002 QNH3017INS
TEMPO 2602/2608 3200 BR BKN008
BECMG 2608/2609 VRB06KT 6000 BR SCT010 QNH3015INS
BECMG 2617/2618 VRB06KT 3200 BR SCT050 QNH3014INS
BECMG 2623/2624 VRB06KT 1600 BR BKN005 QNH3010INS TX09/2613Z TNM02/2607Z



MetMap, La meteo Aeronautica in un colpo d'occhio ! - Copyright ORBIFLY Dicembre 2007 - Disclaimer

ORBIFLY MET'MAP TEAM :

Programmazione e sviluppo : Alexandra Zaïnal
Concezione : Baudouin d'Aumeries
Aiuto per la programmazione : Marc-Olivier Méhu
Supporto tecnico e logistico : Manuel Goepfert
Aiuto per la traduzione : Arnaldo La Scala

Contatto : metmap@orbifly.com




FONTI E CREDITI :

   NOAA